Princeton's Hourly Summary for Monday, May 14, 2018
Hour Temp
(f)
RH
(%)
Solar Rad.
(MJ/m2)
Rainfall
(in)
Wind
(mph)
5/14/2018 12:00 AM 76 71 0 0 2.28
5/14/2018 1:00 AM 75 72 0 0 2.63
5/14/2018 2:00 AM 75 72 0 0 3.02
5/14/2018 3:00 AM 74 74 0 0 3.8
5/14/2018 4:00 AM 73 78 0 0 3.48
5/14/2018 5:00 AM 73 81 0 0 4.49
5/14/2018 6:00 AM 72 84 0 0 5
5/14/2018 7:00 AM 72 91 0.02 0 5.58
5/14/2018 8:00 AM 72 86 0.34 0 6.96
5/14/2018 9:00 AM 73 79 0.76 0 7.51
5/14/2018 10:00 AM 76 71 1.3 0 7.34
5/14/2018 11:00 AM 77 67 1.79 0 7.61
5/14/2018 12:00 PM 80 61 2.57 0 7.75
5/14/2018 1:00 PM 81 58 2.87 0 8.34
5/14/2018 2:00 PM 82 56 2.94 0 8.55
5/14/2018 3:00 PM 84 55 2.89 0 9.11
5/14/2018 4:00 PM 84 51 2.18 0 9.19
5/14/2018 5:00 PM 85 48 1.95 0 9.1
5/14/2018 6:00 PM 85 48 1.7 0 8.49
5/14/2018 7:00 PM 84 52 0.94 0 7.29
5/14/2018 8:00 PM 82 54 0.13 0 5.91
5/14/2018 9:00 PM 79 63 0.01 0 3.54
5/14/2018 10:00 PM 77 69 0 0 2.02
5/14/2018 11:00 PM 77 70 0 0 4.62
Data Summary 77 67 22.39 0.00 5.98